South Labrador Sea - southern half: Past 24 Hour Conditions

 

St. John's Int'l Airport

08:30 PM NST 06 March 2015
Disclaimer

This table is a summary of hourly weather conditions for the past 24 hours.
Please note that these observations might not always be representative of weather conditions over their associated marine area.

Date / Time
(NST)
Wind(knots) Conditions Visibility(km) Pressure(kPa) Air tempC) Relative humidity(%) Dew pointC) Wind Chill
06 March 2015
20:30 WNW 21 gust 30 Mainly Clear 24 102.0 -12 63 -18 -24
19:30 WNW 19 gust 25 Partly Cloudy 24 101.9 -12 65 -17 -23
18:30 WNW 18 gust 26 Mainly Clear 24 101.8 -12 60 -18 -22
17:30 WNW 21 gust 28 Mainly Sunny 24 101.7 -11 53 -19 -22
16:30 WNW 20 gust 29 Mainly Sunny 24 101.6 -11 57 -18 -21
15:30 WNW 19 gust 27 Mainly Sunny 24 101.5 -10 52 -18 -20
14:30 WNW 22 gust 28 Mainly Sunny 24 101.4 -10 54 -18 -21
13:30 WNW 15 gust 25 Mainly Sunny 24 101.4 -11 57 -18 -20
12:30 WNW 17 gust 25 Mainly Sunny 24 101.4 -11 62 -17 -21
11:30 WNW 18 gust 26 Mainly Sunny 24 101.3 -11 62 -17 -22
10:30 WNW 16 gust 28 Partly Cloudy 24 101.3 -12 66 -17 -22
9:30 WNW 20 gust 27 Partly Cloudy 24 101.3 -12 64 -18 -23
8:30 WNW 15 gust 21 Mostly Cloudy 24 101.2 -12 64 -18 -22
7:30 WNW 15 gust 23 Mostly Cloudy 24 101.1 -12 66 -17 -22
6:30 WNW 12 gust 18 Mostly Cloudy 24 101.0 -12 69 -17 -21
5:30 W 15 gust 23 Mostly Cloudy 24 100.9 -12 67 -17 -21
4:30 WNW 18 gust 24 Mostly Cloudy 24 100.8 -11 67 -16 -22
3:30 WNW 17 gust 23 Mostly Cloudy 24 100.8 -11 63 -17 -21
2:30 WNW 20 gust 26 Mostly Cloudy 24 100.7 -11 67 -16 -21
1:30 WNW 20 gust 28 Mostly Cloudy 24 100.8 -10 65 -16 -21
0:30 WNW 26 gust 32 Mostly Cloudy 24 100.6 -10 59 -16 -21
05 March 2015
23:30 W 25 Mostly Cloudy 24 100.5 -9 66 -14 -20
22:30 W 26 gust 31 Mostly Cloudy 24 100.4 -8 65 -14 -19
21:30 WNW 22 gust 29 Mostly Cloudy 24 100.4 -7 65 -13 -17
20:30 W 22 gust 29 Cloudy 24 100.3 -7 59 -13 -16

Zoom-in to make a selection

Map of Atlantic - Newfoundland marine weather areas Southwestern Grand Banks - 44138 Banquereau - 44139 Tail of the Bank - 44140 Nickerson Bank - 44251 Northeast Burgeo Bank - 44255 Blanc-Sablon Airport Cap Whittle Chevery Natashquan Airport Heath Point Miscou Island Grand Étang Ingonish Beach North Mountain St.Paul Island J.A. Douglas McCurdy Sydney Airport Charlottetown Airport East Point North Cape Argentia Bonavista Burgeo Cape Race Corner Brook Daniel's Harbour Englee Ferolle Point La Scie Port aux Basques Rocky Harbour Sagona Island St. Anthony Airport St. John's Int'l Airport St. Lawrence Stephenville Airport Twillingate Winterland Wreckhouse Cartwright Airport Mary's Harbour Grates Cove Pool's Island Marticot Island Long Pond Îles de la Madeleine Airport
Legend:
buoy Buoy
land station Land Station

Atlantic - Newfoundland Area

Another Region

What we are doing

Date modified: